sensor_id;sensor_type;location;lat;lon;timestamp;P1;durP1;ratioP1;P2;durP2;ratioP2
71888;SDS011;59762;49.998;14.858;2023-05-07T00:00:37;14.15;;;6.15;;
71888;SDS011;59762;49.998;14.858;2023-05-07T00:03:19;17.55;;;7.40;;
71888;SDS011;59762;49.998;14.858;2023-05-07T00:05:45;19.55;;;6.28;;
71888;SDS011;59762;49.998;14.858;2023-05-07T00:08:11;16.10;;;6.85;;
71888;SDS011;59762;49.998;14.858;2023-05-07T00:10:37;17.58;;;7.65;;
71888;SDS011;59762;49.998;14.858;2023-05-07T00:13:03;11.80;;;6.40;;
71888;SDS011;59762;49.998;14.858;2023-05-07T00:15:28;16.55;;;6.75;;
71888;SDS011;59762;49.998;14.858;2023-05-07T00:17:55;17.98;;;6.85;;
71888;SDS011;59762;49.998;14.858;2023-05-07T00:20:21;12.60;;;7.38;;
71888;SDS011;59762;49.998;14.858;2023-05-07T00:22:46;13.43;;;5.80;;
71888;SDS011;59762;49.998;14.858;2023-05-07T00:25:12;13.65;;;5.78;;
71888;SDS011;59762;49.998;14.858;2023-05-07T00:27:38;14.55;;;7.53;;
71888;SDS011;59762;49.998;14.858;2023-05-07T00:30:03;16.30;;;7.03;;
71888;SDS011;59762;49.998;14.858;2023-05-07T00:32:30;17.80;;;6.65;;
71888;SDS011;59762;49.998;14.858;2023-05-07T00:34:55;14.60;;;6.35;;
71888;SDS011;59762;49.998;14.858;2023-05-07T00:37:21;16.67;;;5.82;;
71888;SDS011;59762;49.998;14.858;2023-05-07T00:39:46;13.98;;;5.63;;
71888;SDS011;59762;49.998;14.858;2023-05-07T00:42:12;15.20;;;5.88;;
71888;SDS011;59762;49.998;14.858;2023-05-07T00:44:38;13.30;;;6.05;;
71888;SDS011;59762;49.998;14.858;2023-05-07T00:47:03;30.75;;;11.65;;
71888;SDS011;59762;49.998;14.858;2023-05-07T00:49:35;15.15;;;6.82;;
71888;SDS011;59762;49.998;14.858;2023-05-07T00:52:05;16.75;;;7.28;;
71888;SDS011;59762;49.998;14.858;2023-05-07T00:54:32;15.93;;;6.57;;
71888;SDS011;59762;49.998;14.858;2023-05-07T00:56:58;15.77;;;6.68;;
71888;SDS011;59762;49.998;14.858;2023-05-07T00:59:24;16.10;;;5.97;;
71888;SDS011;59762;49.998;14.858;2023-05-07T01:01:50;17.98;;;6.72;;
71888;SDS011;59762;49.998;14.858;2023-05-07T01:04:17;12.13;;;6.38;;
71888;SDS011;59762;49.998;14.858;2023-05-07T01:06:43;15.05;;;5.95;;
71888;SDS011;59762;49.998;14.858;2023-05-07T01:09:10;15.25;;;6.43;;
71888;SDS011;59762;49.998;14.858;2023-05-07T01:11:37;13.68;;;5.55;;
71888;SDS011;59762;49.998;14.858;2023-05-07T01:14:04;17.13;;;7.35;;
71888;SDS011;59762;49.998;14.858;2023-05-07T01:16:30;14.95;;;6.35;;
71888;SDS011;59762;49.998;14.858;2023-05-07T01:18:56;12.93;;;5.35;;
71888;SDS011;59762;49.998;14.858;2023-05-07T01:21:25;12.45;;;5.85;;
71888;SDS011;59762;49.998;14.858;2023-05-07T01:23:51;17.58;;;6.60;;
71888;SDS011;59762;49.998;14.858;2023-05-07T01:26:19;11.18;;;5.78;;
71888;SDS011;59762;49.998;14.858;2023-05-07T01:28:45;15.23;;;6.28;;
71888;SDS011;59762;49.998;14.858;2023-05-07T01:31:11;15.85;;;5.82;;
71888;SDS011;59762;49.998;14.858;2023-05-07T01:33:38;13.75;;;5.57;;
71888;SDS011;59762;49.998;14.858;2023-05-07T01:36:07;12.25;;;5.20;;
71888;SDS011;59762;49.998;14.858;2023-05-07T01:38:34;12.23;;;5.43;;
71888;SDS011;59762;49.998;14.858;2023-05-07T01:41:02;12.35;;;5.35;;
71888;SDS011;59762;49.998;14.858;2023-05-07T01:43:28;14.48;;;6.22;;
71888;SDS011;59762;49.998;14.858;2023-05-07T01:45:55;13.30;;;6.28;;
71888;SDS011;59762;49.998;14.858;2023-05-07T01:48:23;11.43;;;5.97;;
71888;SDS011;59762;49.998;14.858;2023-05-07T01:50:50;11.88;;;5.63;;
71888;SDS011;59762;49.998;14.858;2023-05-07T01:53:16;13.63;;;5.72;;
71888;SDS011;59762;49.998;14.858;2023-05-07T01:55:42;11.20;;;5.53;;
71888;SDS011;59762;49.998;14.858;2023-05-07T01:58:07;14.35;;;5.72;;
71888;SDS011;59762;49.998;14.858;2023-05-07T02:00:33;13.95;;;5.78;;
71888;SDS011;59762;49.998;14.858;2023-05-07T02:02:59;12.85;;;6.47;;
71888;SDS011;59762;49.998;14.858;2023-05-07T02:05:25;11.43;;;5.55;;
71888;SDS011;59762;49.998;14.858;2023-05-07T02:07:50;15.80;;;6.28;;
71888;SDS011;59762;49.998;14.858;2023-05-07T02:10:16;11.13;;;4.53;;
71888;SDS011;59762;49.998;14.858;2023-05-07T02:12:42;15.32;;;6.18;;
71888;SDS011;59762;49.998;14.858;2023-05-07T02:15:08;14.40;;;5.88;;
71888;SDS011;59762;49.998;14.858;2023-05-07T02:17:33;15.07;;;6.00;;
71888;SDS011;59762;49.998;14.858;2023-05-07T02:19:59;11.07;;;5.05;;
71888;SDS011;59762;49.998;14.858;2023-05-07T02:22:25;13.60;;;6.63;;
71888;SDS011;59762;49.998;14.858;2023-05-07T02:24:51;17.33;;;6.28;;
71888;SDS011;59762;49.998;14.858;2023-05-07T02:27:16;12.55;;;6.13;;
71888;SDS011;59762;49.998;14.858;2023-05-07T02:29:42;16.17;;;5.88;;
71888;SDS011;59762;49.998;14.858;2023-05-07T02:32:07;14.25;;;5.50;;
71888;SDS011;59762;49.998;14.858;2023-05-07T02:34:33;11.52;;;5.25;;
71888;SDS011;59762;49.998;14.858;2023-05-07T02:36:59;12.40;;;5.20;;
71888;SDS011;59762;49.998;14.858;2023-05-07T02:39:24;15.23;;;6.25;;
71888;SDS011;59762;49.998;14.858;2023-05-07T02:41:50;10.80;;;5.32;;
71888;SDS011;59762;49.998;14.858;2023-05-07T02:44:16;14.10;;;5.32;;
71888;SDS011;59762;49.998;14.858;2023-05-07T02:46:42;13.10;;;5.72;;
71888;SDS011;59762;49.998;14.858;2023-05-07T02:49:07;14.18;;;5.60;;
71888;SDS011;59762;49.998;14.858;2023-05-07T02:51:33;10.50;;;5.28;;
71888;SDS011;59762;49.998;14.858;2023-05-07T02:53:59;11.07;;;5.63;;
71888;SDS011;59762;49.998;14.858;2023-05-07T02:56:26;10.23;;;4.30;;
71888;SDS011;59762;49.998;14.858;2023-05-07T02:58:52;7.68;;;4.38;;
71888;SDS011;59762;49.998;14.858;2023-05-07T03:01:18;12.43;;;4.95;;
71888;SDS011;59762;49.998;14.858;2023-05-07T03:03:43;8.40;;;5.15;;
71888;SDS011;59762;49.998;14.858;2023-05-07T03:06:09;9.45;;;4.65;;
71888;SDS011;59762;49.998;14.858;2023-05-07T03:08:35;10.25;;;5.20;;
71888;SDS011;59762;49.998;14.858;2023-05-07T03:11:02;11.88;;;6.40;;
71888;SDS011;59762;49.998;14.858;2023-05-07T03:13:28;11.35;;;5.03;;
71888;SDS011;59762;49.998;14.858;2023-05-07T03:15:53;14.48;;;6.88;;
71888;SDS011;59762;49.998;14.858;2023-05-07T03:18:19;10.30;;;5.45;;
71888;SDS011;59762;49.998;14.858;2023-05-07T03:20:44;10.48;;;4.88;;
71888;SDS011;59762;49.998;14.858;2023-05-07T03:23:10;12.05;;;5.55;;
71888;SDS011;59762;49.998;14.858;2023-05-07T03:25:36;11.10;;;4.70;;
71888;SDS011;59762;49.998;14.858;2023-05-07T03:28:01;9.20;;;5.40;;
71888;SDS011;59762;49.998;14.858;2023-05-07T03:30:27;8.50;;;4.30;;
71888;SDS011;59762;49.998;14.858;2023-05-07T03:32:53;10.60;;;4.32;;
71888;SDS011;59762;49.998;14.858;2023-05-07T03:35:18;8.90;;;4.65;;
71888;SDS011;59762;49.998;14.858;2023-05-07T03:37:44;9.43;;;4.63;;
71888;SDS011;59762;49.998;14.858;2023-05-07T03:40:10;14.25;;;5.13;;
71888;SDS011;59762;49.998;14.858;2023-05-07T03:42:37;10.05;;;5.85;;
71888;SDS011;59762;49.998;14.858;2023-05-07T03:45:03;9.05;;;4.63;;
71888;SDS011;59762;49.998;14.858;2023-05-07T03:47:29;7.00;;;3.65;;
71888;SDS011;59762;49.998;14.858;2023-05-07T03:49:55;9.40;;;4.75;;
71888;SDS011;59762;49.998;14.858;2023-05-07T03:52:21;9.55;;;4.93;;
71888;SDS011;59762;49.998;14.858;2023-05-07T03:54:52;9.20;;;4.15;;
71888;SDS011;59762;49.998;14.858;2023-05-07T03:57:18;10.75;;;4.78;;
71888;SDS011;59762;49.998;14.858;2023-05-07T03:59:44;8.88;;;4.93;;
71888;SDS011;59762;49.998;14.858;2023-05-07T04:02:10;7.95;;;4.05;;
71888;SDS011;59762;49.998;14.858;2023-05-07T04:04:36;9.18;;;4.60;;
71888;SDS011;59762;49.998;14.858;2023-05-07T04:07:01;7.85;;;4.47;;
71888;SDS011;59762;49.998;14.858;2023-05-07T04:09:28;8.50;;;3.80;;
71888;SDS011;59762;49.998;14.858;2023-05-07T04:11:54;7.15;;;4.20;;
71888;SDS011;59762;49.998;14.858;2023-05-07T04:14:19;10.30;;;3.92;;
71888;SDS011;59762;49.998;14.858;2023-05-07T04:16:45;6.90;;;3.85;;
71888;SDS011;59762;49.998;14.858;2023-05-07T04:19:11;17.50;;;4.00;;
71888;SDS011;59762;49.998;14.858;2023-05-07T04:21:36;13.05;;;4.75;;
71888;SDS011;59762;49.998;14.858;2023-05-07T04:24:02;6.75;;;3.67;;
71888;SDS011;59762;49.998;14.858;2023-05-07T04:26:29;8.82;;;4.35;;
71888;SDS011;59762;49.998;14.858;2023-05-07T04:28:55;9.18;;;4.43;;
71888;SDS011;59762;49.998;14.858;2023-05-07T04:31:22;8.80;;;4.22;;
71888;SDS011;59762;49.998;14.858;2023-05-07T04:33:47;11.95;;;4.38;;
71888;SDS011;59762;49.998;14.858;2023-05-07T04:36:13;9.40;;;4.55;;
71888;SDS011;59762;49.998;14.858;2023-05-07T04:38:38;7.85;;;3.85;;
71888;SDS011;59762;49.998;14.858;2023-05-07T04:41:05;11.85;;;4.32;;
71888;SDS011;59762;49.998;14.858;2023-05-07T04:43:31;9.27;;;4.38;;
71888;SDS011;59762;49.998;14.858;2023-05-07T04:45:57;9.57;;;4.57;;
71888;SDS011;59762;49.998;14.858;2023-05-07T04:48:23;7.05;;;4.00;;
71888;SDS011;59762;49.998;14.858;2023-05-07T04:50:49;5.63;;;3.28;;
71888;SDS011;59762;49.998;14.858;2023-05-07T04:53:15;9.23;;;4.13;;
71888;SDS011;59762;49.998;14.858;2023-05-07T04:55:42;8.38;;;3.72;;
71888;SDS011;59762;49.998;14.858;2023-05-07T04:58:08;6.97;;;3.65;;
71888;SDS011;59762;49.998;14.858;2023-05-07T05:00:34;7.40;;;4.25;;
71888;SDS011;59762;49.998;14.858;2023-05-07T05:03:00;6.97;;;3.58;;
71888;SDS011;59762;49.998;14.858;2023-05-07T05:05:25;8.07;;;3.85;;
71888;SDS011;59762;49.998;14.858;2023-05-07T05:07:51;6.15;;;3.30;;
71888;SDS011;59762;49.998;14.858;2023-05-07T05:10:17;8.20;;;3.90;;
71888;SDS011;59762;49.998;14.858;2023-05-07T05:12:43;7.80;;;3.40;;
71888;SDS011;59762;49.998;14.858;2023-05-07T05:15:11;8.25;;;3.30;;
71888;SDS011;59762;49.998;14.858;2023-05-07T05:17:38;7.43;;;3.50;;
71888;SDS011;59762;49.998;14.858;2023-05-07T05:20:04;6.50;;;3.53;;
71888;SDS011;59762;49.998;14.858;2023-05-07T05:22:31;5.65;;;3.28;;
71888;SDS011;59762;49.998;14.858;2023-05-07T05:24:57;8.85;;;4.20;;
71888;SDS011;59762;49.998;14.858;2023-05-07T05:27:22;6.95;;;3.97;;
71888;SDS011;59762;49.998;14.858;2023-05-07T05:29:48;8.02;;;3.92;;
71888;SDS011;59762;49.998;14.858;2023-05-07T05:32:14;6.93;;;3.13;;
71888;SDS011;59762;49.998;14.858;2023-05-07T05:34:40;6.93;;;3.35;;
71888;SDS011;59762;49.998;14.858;2023-05-07T05:37:05;7.15;;;3.50;;
71888;SDS011;59762;49.998;14.858;2023-05-07T05:39:31;6.82;;;2.92;;
71888;SDS011;59762;49.998;14.858;2023-05-07T05:41:56;8.13;;;3.95;;
71888;SDS011;59762;49.998;14.858;2023-05-07T05:44:22;8.65;;;4.00;;
71888;SDS011;59762;49.998;14.858;2023-05-07T05:46:48;5.68;;;3.30;;
71888;SDS011;59762;49.998;14.858;2023-05-07T05:49:15;7.88;;;3.22;;
71888;SDS011;59762;49.998;14.858;2023-05-07T05:51:40;7.03;;;3.08;;
71888;SDS011;59762;49.998;14.858;2023-05-07T05:54:06;8.48;;;3.33;;
71888;SDS011;59762;49.998;14.858;2023-05-07T05:56:32;7.68;;;3.70;;
71888;SDS011;59762;49.998;14.858;2023-05-07T05:58:58;7.63;;;3.35;;
71888;SDS011;59762;49.998;14.858;2023-05-07T06:01:24;6.45;;;3.55;;
71888;SDS011;59762;49.998;14.858;2023-05-07T06:03:50;7.75;;;3.97;;
71888;SDS011;59762;49.998;14.858;2023-05-07T06:06:15;5.72;;;3.92;;
71888;SDS011;59762;49.998;14.858;2023-05-07T06:08:41;6.88;;;3.65;;
71888;SDS011;59762;49.998;14.858;2023-05-07T06:11:07;5.13;;;3.00;;
71888;SDS011;59762;49.998;14.858;2023-05-07T06:13:33;6.50;;;2.55;;
71888;SDS011;59762;49.998;14.858;2023-05-07T06:15:58;5.13;;;2.92;;
71888;SDS011;59762;49.998;14.858;2023-05-07T06:18:24;4.60;;;2.90;;
71888;SDS011;59762;49.998;14.858;2023-05-07T06:20:51;10.70;;;4.10;;
71888;SDS011;59762;49.998;14.858;2023-05-07T06:23:18;9.63;;;4.65;;
71888;SDS011;59762;49.998;14.858;2023-05-07T06:25:50;7.20;;;4.03;;
71888;SDS011;59762;49.998;14.858;2023-05-07T06:28:16;8.77;;;4.45;;
71888;SDS011;59762;49.998;14.858;2023-05-07T06:30:42;10.32;;;5.07;;
71888;SDS011;59762;49.998;14.858;2023-05-07T06:33:08;7.18;;;3.97;;
71888;SDS011;59762;49.998;14.858;2023-05-07T06:35:33;5.90;;;3.60;;
71888;SDS011;59762;49.998;14.858;2023-05-07T06:37:59;7.28;;;3.53;;
71888;SDS011;59762;49.998;14.858;2023-05-07T06:40:26;9.23;;;4.32;;
71888;SDS011;59762;49.998;14.858;2023-05-07T06:42:52;10.23;;;4.55;;
71888;SDS011;59762;49.998;14.858;2023-05-07T06:45:18;7.65;;;4.05;;
71888;SDS011;59762;49.998;14.858;2023-05-07T06:47:45;11.07;;;4.60;;
71888;SDS011;59762;49.998;14.858;2023-05-07T06:50:10;7.97;;;4.10;;
71888;SDS011;59762;49.998;14.858;2023-05-07T06:52:37;10.68;;;3.90;;
71888;SDS011;59762;49.998;14.858;2023-05-07T06:55:02;7.93;;;3.72;;
71888;SDS011;59762;49.998;14.858;2023-05-07T06:57:28;8.68;;;4.38;;
71888;SDS011;59762;49.998;14.858;2023-05-07T06:59:54;8.52;;;3.95;;
71888;SDS011;59762;49.998;14.858;2023-05-07T07:02:20;7.82;;;4.18;;
71888;SDS011;59762;49.998;14.858;2023-05-07T07:04:45;7.28;;;3.80;;
71888;SDS011;59762;49.998;14.858;2023-05-07T07:07:11;7.05;;;3.38;;
71888;SDS011;59762;49.998;14.858;2023-05-07T07:09:37;9.20;;;3.95;;
71888;SDS011;59762;49.998;14.858;2023-05-07T07:12:03;6.20;;;3.38;;
71888;SDS011;59762;49.998;14.858;2023-05-07T07:14:29;8.55;;;3.78;;
71888;SDS011;59762;49.998;14.858;2023-05-07T07:16:54;5.93;;;3.70;;
71888;SDS011;59762;49.998;14.858;2023-05-07T07:19:20;6.20;;;3.70;;
71888;SDS011;59762;49.998;14.858;2023-05-07T07:21:46;5.82;;;3.67;;
71888;SDS011;59762;49.998;14.858;2023-05-07T07:24:12;7.97;;;4.22;;
71888;SDS011;59762;49.998;14.858;2023-05-07T07:26:39;7.43;;;3.83;;
71888;SDS011;59762;49.998;14.858;2023-05-07T07:29:05;5.47;;;2.13;;
71888;SDS011;59762;49.998;14.858;2023-05-07T07:31:32;3.83;;;2.20;;
71888;SDS011;59762;49.998;14.858;2023-05-07T07:33:57;3.45;;;2.20;;
71888;SDS011;59762;49.998;14.858;2023-05-07T07:36:23;4.22;;;2.40;;
71888;SDS011;59762;49.998;14.858;2023-05-07T07:38:49;4.82;;;2.42;;
71888;SDS011;59762;49.998;14.858;2023-05-07T07:41:14;3.60;;;2.47;;
71888;SDS011;59762;49.998;14.858;2023-05-07T07:43:40;5.13;;;2.42;;
71888;SDS011;59762;49.998;14.858;2023-05-07T07:46:06;3.83;;;2.58;;
71888;SDS011;59762;49.998;14.858;2023-05-07T07:48:31;4.45;;;2.53;;
71888;SDS011;59762;49.998;14.858;2023-05-07T07:50:57;4.28;;;2.15;;
71888;SDS011;59762;49.998;14.858;2023-05-07T07:53:23;3.05;;;1.92;;
71888;SDS011;59762;49.998;14.858;2023-05-07T07:55:48;6.38;;;2.42;;
71888;SDS011;59762;49.998;14.858;2023-05-07T07:58:14;4.07;;;2.38;;
71888;SDS011;59762;49.998;14.858;2023-05-07T08:00:40;5.82;;;2.85;;
71888;SDS011;59762;49.998;14.858;2023-05-07T08:03:05;5.70;;;3.10;;
71888;SDS011;59762;49.998;14.858;2023-05-07T08:05:32;4.40;;;2.33;;
71888;SDS011;59762;49.998;14.858;2023-05-07T08:07:58;6.63;;;2.60;;
71888;SDS011;59762;49.998;14.858;2023-05-07T08:10:23;5.38;;;2.88;;
71888;SDS011;59762;49.998;14.858;2023-05-07T08:12:49;4.95;;;2.78;;
71888;SDS011;59762;49.998;14.858;2023-05-07T08:15:16;5.28;;;2.53;;
71888;SDS011;59762;49.998;14.858;2023-05-07T08:17:42;4.95;;;2.47;;
71888;SDS011;59762;49.998;14.858;2023-05-07T08:20:08;5.90;;;2.83;;
71888;SDS011;59762;49.998;14.858;2023-05-07T08:22:35;3.85;;;2.60;;
71888;SDS011;59762;49.998;14.858;2023-05-07T08:25:01;4.45;;;2.72;;
71888;SDS011;59762;49.998;14.858;2023-05-07T08:27:27;5.50;;;3.00;;
71888;SDS011;59762;49.998;14.858;2023-05-07T08:29:53;5.65;;;2.88;;
71888;SDS011;59762;49.998;14.858;2023-05-07T08:32:20;7.68;;;3.78;;
71888;SDS011;59762;49.998;14.858;2023-05-07T08:34:46;8.95;;;3.10;;
71888;SDS011;59762;49.998;14.858;2023-05-07T08:37:12;5.30;;;2.95;;
71888;SDS011;59762;49.998;14.858;2023-05-07T08:39:38;18.10;;;6.18;;
71888;SDS011;59762;49.998;14.858;2023-05-07T08:42:04;10.82;;;4.68;;
71888;SDS011;59762;49.998;14.858;2023-05-07T08:44:32;4.63;;;2.75;;
71888;SDS011;59762;49.998;14.858;2023-05-07T08:47:00;10.13;;;4.15;;
71888;SDS011;59762;49.998;14.858;2023-05-07T08:49:27;6.75;;;3.28;;
71888;SDS011;59762;49.998;14.858;2023-05-07T08:51:53;6.57;;;3.08;;
71888;SDS011;59762;49.998;14.858;2023-05-07T08:54:20;4.53;;;2.92;;
71888;SDS011;59762;49.998;14.858;2023-05-07T08:56:46;12.05;;;4.63;;
71888;SDS011;59762;49.998;14.858;2023-05-07T08:59:13;5.45;;;3.95;;
71888;SDS011;59762;49.998;14.858;2023-05-07T09:01:40;5.28;;;3.00;;
71888;SDS011;59762;49.998;14.858;2023-05-07T09:04:08;7.47;;;3.33;;
71888;SDS011;59762;49.998;14.858;2023-05-07T09:06:36;5.18;;;3.60;;
71888;SDS011;59762;49.998;14.858;2023-05-07T09:09:08;6.57;;;3.50;;
71888;SDS011;59762;49.998;14.858;2023-05-07T09:11:35;7.45;;;3.42;;
71888;SDS011;59762;49.998;14.858;2023-05-07T09:14:03;5.55;;;2.88;;
71888;SDS011;59762;49.998;14.858;2023-05-07T09:16:31;6.28;;;3.13;;
71888;SDS011;59762;49.998;14.858;2023-05-07T09:18:59;10.13;;;3.90;;
71888;SDS011;59762;49.998;14.858;2023-05-07T09:21:28;7.10;;;3.65;;
71888;SDS011;59762;49.998;14.858;2023-05-07T09:23:54;7.35;;;4.25;;
71888;SDS011;59762;49.998;14.858;2023-05-07T09:26:21;8.10;;;4.53;;
71888;SDS011;59762;49.998;14.858;2023-05-07T09:28:48;6.75;;;5.00;;
71888;SDS011;59762;49.998;14.858;2023-05-07T09:31:13;7.15;;;4.15;;
71888;SDS011;59762;49.998;14.858;2023-05-07T09:33:40;8.73;;;4.45;;
71888;SDS011;59762;49.998;14.858;2023-05-07T09:36:06;14.02;;;6.00;;
71888;SDS011;59762;49.998;14.858;2023-05-07T09:38:34;9.25;;;5.05;;
71888;SDS011;59762;49.998;14.858;2023-05-07T09:41:04;7.40;;;4.45;;
71888;SDS011;59762;49.998;14.858;2023-05-07T09:43:35;9.48;;;5.47;;
71888;SDS011;59762;49.998;14.858;2023-05-07T09:46:11;9.20;;;4.55;;
71888;SDS011;59762;49.998;14.858;2023-05-07T09:48:39;15.48;;;6.75;;
71888;SDS011;59762;49.998;14.858;2023-05-07T09:51:07;8.15;;;4.63;;
71888;SDS011;59762;49.998;14.858;2023-05-07T09:53:41;8.52;;;3.97;;
71888;SDS011;59762;49.998;14.858;2023-05-07T09:56:08;9.23;;;4.72;;
71888;SDS011;59762;49.998;14.858;2023-05-07T09:58:36;6.30;;;3.40;;
71888;SDS011;59762;49.998;14.858;2023-05-07T10:01:02;5.35;;;3.40;;
71888;SDS011;59762;49.998;14.858;2023-05-07T10:03:28;4.43;;;2.97;;
71888;SDS011;59762;49.998;14.858;2023-05-07T10:05:58;4.40;;;2.85;;
71888;SDS011;59762;49.998;14.858;2023-05-07T10:08:24;5.57;;;2.78;;
71888;SDS011;59762;49.998;14.858;2023-05-07T10:10:50;3.58;;;2.28;;
71888;SDS011;59762;49.998;14.858;2023-05-07T10:13:16;5.38;;;2.35;;
71888;SDS011;59762;49.998;14.858;2023-05-07T10:15:44;10.02;;;3.90;;
71888;SDS011;59762;49.998;14.858;2023-05-07T10:18:10;19.95;;;4.63;;
71888;SDS011;59762;49.998;14.858;2023-05-07T10:20:37;28.20;;;5.85;;
71888;SDS011;59762;49.998;14.858;2023-05-07T10:23:04;2.75;;;2.15;;
71888;SDS011;59762;49.998;14.858;2023-05-07T10:25:31;19.92;;;4.43;;
71888;SDS011;59762;49.998;14.858;2023-05-07T10:27:59;13.52;;;4.35;;
71888;SDS011;59762;49.998;14.858;2023-05-07T10:33:44;3.40;;;2.13;;
71888;SDS011;59762;49.998;14.858;2023-05-07T10:36:12;3.92;;;2.63;;
71888;SDS011;59762;49.998;14.858;2023-05-07T10:38:38;3.42;;;2.40;;
71888;SDS011;59762;49.998;14.858;2023-05-07T10:41:05;4.28;;;2.45;;
71888;SDS011;59762;49.998;14.858;2023-05-07T10:43:41;8.85;;;3.20;;
71888;SDS011;59762;49.998;14.858;2023-05-07T10:46:13;4.18;;;2.45;;
71888;SDS011;59762;49.998;14.858;2023-05-07T10:51:34;2.88;;;2.03;;
71888;SDS011;59762;49.998;14.858;2023-05-07T10:56:35;8.65;;;3.28;;
71888;SDS011;59762;49.998;14.858;2023-05-07T10:59:48;5.50;;;2.63;;
71888;SDS011;59762;49.998;14.858;2023-05-07T11:02:02;2.60;;;1.98;;
71888;SDS011;59762;49.998;14.858;2023-05-07T11:04:30;3.20;;;2.13;;
71888;SDS011;59762;49.998;14.858;2023-05-07T11:07:44;7.78;;;3.38;;
71888;SDS011;59762;49.998;14.858;2023-05-07T11:09:55;6.35;;;2.92;;
71888;SDS011;59762;49.998;14.858;2023-05-07T11:15:04;4.47;;;2.50;;
71888;SDS011;59762;49.998;14.858;2023-05-07T11:17:31;2.72;;;2.15;;
71888;SDS011;59762;49.998;14.858;2023-05-07T11:20:00;3.97;;;2.30;;
71888;SDS011;59762;49.998;14.858;2023-05-07T11:24:55;3.80;;;2.60;;
71888;SDS011;59762;49.998;14.858;2023-05-07T11:27:25;4.32;;;2.80;;
71888;SDS011;59762;49.998;14.858;2023-05-07T11:29:52;6.65;;;3.42;;
71888;SDS011;59762;49.998;14.858;2023-05-07T11:32:24;4.75;;;2.90;;
71888;SDS011;59762;49.998;14.858;2023-05-07T11:34:57;7.47;;;3.60;;
71888;SDS011;59762;49.998;14.858;2023-05-07T11:37:25;4.50;;;2.95;;
71888;SDS011;59762;49.998;14.858;2023-05-07T11:40:02;14.38;;;5.57;;
71888;SDS011;59762;49.998;14.858;2023-05-07T11:42:33;11.57;;;4.75;;
71888;SDS011;59762;49.998;14.858;2023-05-07T11:45:00;4.28;;;2.92;;
71888;SDS011;59762;49.998;14.858;2023-05-07T11:47:29;4.28;;;3.03;;
71888;SDS011;59762;49.998;14.858;2023-05-07T11:49:56;9.55;;;3.88;;
71888;SDS011;59762;49.998;14.858;2023-05-07T11:52:22;9.95;;;4.22;;
71888;SDS011;59762;49.998;14.858;2023-05-07T11:57:18;6.35;;;3.38;;
71888;SDS011;59762;49.998;14.858;2023-05-07T11:59:44;4.00;;;3.10;;
71888;SDS011;59762;49.998;14.858;2023-05-07T12:02:10;4.25;;;2.72;;
71888;SDS011;59762;49.998;14.858;2023-05-07T12:04:38;5.22;;;3.08;;
71888;SDS011;59762;49.998;14.858;2023-05-07T12:07:04;4.45;;;3.00;;
71888;SDS011;59762;49.998;14.858;2023-05-07T12:09:32;4.32;;;3.17;;
71888;SDS011;59762;49.998;14.858;2023-05-07T12:12:02;4.28;;;2.85;;
71888;SDS011;59762;49.998;14.858;2023-05-07T12:14:29;6.75;;;3.55;;
71888;SDS011;59762;49.998;14.858;2023-05-07T12:16:54;4.38;;;3.17;;
71888;SDS011;59762;49.998;14.858;2023-05-07T12:19:20;8.10;;;4.18;;
71888;SDS011;59762;49.998;14.858;2023-05-07T12:21:46;5.47;;;3.08;;
71888;SDS011;59762;49.998;14.858;2023-05-07T12:24:14;5.05;;;3.30;;
71888;SDS011;59762;49.998;14.858;2023-05-07T12:26:39;4.45;;;2.75;;
71888;SDS011;59762;49.998;14.858;2023-05-07T12:29:06;4.75;;;3.30;;
71888;SDS011;59762;49.998;14.858;2023-05-07T12:31:32;5.25;;;2.58;;
71888;SDS011;59762;49.998;14.858;2023-05-07T12:33:58;4.38;;;2.75;;
71888;SDS011;59762;49.998;14.858;2023-05-07T12:36:26;4.57;;;3.40;;
71888;SDS011;59762;49.998;14.858;2023-05-07T12:39:06;8.60;;;3.67;;
71888;SDS011;59762;49.998;14.858;2023-05-07T12:42:16;4.95;;;3.47;;
71888;SDS011;59762;49.998;14.858;2023-05-07T12:44:24;4.38;;;3.20;;
71888;SDS011;59762;49.998;14.858;2023-05-07T12:46:53;5.97;;;3.80;;
71888;SDS011;59762;49.998;14.858;2023-05-07T12:49:19;5.07;;;3.17;;
71888;SDS011;59762;49.998;14.858;2023-05-07T12:51:48;5.40;;;3.70;;
71888;SDS011;59762;49.998;14.858;2023-05-07T12:57:08;4.13;;;3.38;;
71888;SDS011;59762;49.998;14.858;2023-05-07T12:59:36;4.43;;;3.08;;
71888;SDS011;59762;49.998;14.858;2023-05-07T13:02:03;5.18;;;3.53;;
71888;SDS011;59762;49.998;14.858;2023-05-07T13:04:29;5.90;;;3.72;;
71888;SDS011;59762;49.998;14.858;2023-05-07T13:06:55;3.75;;;2.90;;
71888;SDS011;59762;49.998;14.858;2023-05-07T13:09:20;6.93;;;4.10;;
71888;SDS011;59762;49.998;14.858;2023-05-07T13:11:46;7.13;;;4.38;;
71888;SDS011;59762;49.998;14.858;2023-05-07T13:14:12;6.10;;;3.92;;
71888;SDS011;59762;49.998;14.858;2023-05-07T13:16:37;6.00;;;4.60;;
71888;SDS011;59762;49.998;14.858;2023-05-07T13:19:03;5.63;;;3.83;;
71888;SDS011;59762;49.998;14.858;2023-05-07T13:21:29;10.13;;;4.35;;
71888;SDS011;59762;49.998;14.858;2023-05-07T13:23:57;9.48;;;4.53;;
71888;SDS011;59762;49.998;14.858;2023-05-07T13:26:23;8.48;;;4.97;;
71888;SDS011;59762;49.998;14.858;2023-05-07T13:28:50;8.48;;;5.07;;
71888;SDS011;59762;49.998;14.858;2023-05-07T13:31:16;7.10;;;4.25;;
71888;SDS011;59762;49.998;14.858;2023-05-07T13:33:46;7.43;;;4.15;;
71888;SDS011;59762;49.998;14.858;2023-05-07T13:36:12;7.15;;;4.30;;
71888;SDS011;59762;49.998;14.858;2023-05-07T13:38:38;10.27;;;4.95;;
71888;SDS011;59762;49.998;14.858;2023-05-07T13:41:05;7.72;;;4.72;;
71888;SDS011;59762;49.998;14.858;2023-05-07T13:43:30;8.40;;;4.82;;
71888;SDS011;59762;49.998;14.858;2023-05-07T13:45:58;8.85;;;4.88;;
71888;SDS011;59762;49.998;14.858;2023-05-07T13:48:25;7.75;;;4.50;;
71888;SDS011;59762;49.998;14.858;2023-05-07T13:50:50;8.02;;;4.72;;
71888;SDS011;59762;49.998;14.858;2023-05-07T13:53:17;7.97;;;4.93;;
71888;SDS011;59762;49.998;14.858;2023-05-07T13:55:43;7.32;;;4.45;;
71888;SDS011;59762;49.998;14.858;2023-05-07T13:58:10;7.60;;;4.32;;
71888;SDS011;59762;49.998;14.858;2023-05-07T14:00:36;6.50;;;3.97;;
71888;SDS011;59762;49.998;14.858;2023-05-07T14:03:02;5.35;;;3.80;;
71888;SDS011;59762;49.998;14.858;2023-05-07T14:05:29;7.50;;;3.75;;
71888;SDS011;59762;49.998;14.858;2023-05-07T14:07:56;7.03;;;3.97;;
71888;SDS011;59762;49.998;14.858;2023-05-07T14:10:23;5.80;;;3.33;;
71888;SDS011;59762;49.998;14.858;2023-05-07T14:12:49;5.82;;;3.20;;
71888;SDS011;59762;49.998;14.858;2023-05-07T14:15:14;5.57;;;3.80;;
71888;SDS011;59762;49.998;14.858;2023-05-07T14:17:41;5.85;;;4.07;;
71888;SDS011;59762;49.998;14.858;2023-05-07T14:20:07;5.93;;;3.85;;
71888;SDS011;59762;49.998;14.858;2023-05-07T14:22:34;6.72;;;4.18;;
71888;SDS011;59762;49.998;14.858;2023-05-07T14:24:59;6.95;;;3.60;;
71888;SDS011;59762;49.998;14.858;2023-05-07T14:27:25;5.85;;;3.67;;
71888;SDS011;59762;49.998;14.858;2023-05-07T14:29:51;6.47;;;4.10;;
71888;SDS011;59762;49.998;14.858;2023-05-07T14:32:17;7.85;;;3.47;;
71888;SDS011;59762;49.998;14.858;2023-05-07T14:34:43;6.43;;;3.25;;
71888;SDS011;59762;49.998;14.858;2023-05-07T14:37:10;5.68;;;3.47;;
71888;SDS011;59762;49.998;14.858;2023-05-07T14:39:35;4.63;;;2.72;;
71888;SDS011;59762;49.998;14.858;2023-05-07T14:42:01;5.78;;;3.97;;
71888;SDS011;59762;49.998;14.858;2023-05-07T14:44:27;4.75;;;3.28;;
71888;SDS011;59762;49.998;14.858;2023-05-07T14:46:53;4.80;;;2.85;;